sensor_id;sensor_type;location;lat;lon;timestamp;P1;durP1;ratioP1;P2;durP2;ratioP2
72493;SDS011;60520;49.182;-0.348;2022-12-10T00:01:48;4.78;;;3.42;;
72493;SDS011;60520;49.182;-0.348;2022-12-10T00:04:17;4.45;;;2.97;;
72493;SDS011;60520;49.182;-0.348;2022-12-10T00:06:44;3.85;;;2.90;;
72493;SDS011;60520;49.182;-0.348;2022-12-10T00:09:12;4.13;;;2.80;;
72493;SDS011;60520;49.182;-0.348;2022-12-10T00:11:41;5.32;;;3.03;;
72493;SDS011;60520;49.182;-0.348;2022-12-10T00:14:08;4.32;;;3.03;;
72493;SDS011;60520;49.182;-0.348;2022-12-10T00:16:35;4.35;;;3.17;;
72493;SDS011;60520;49.182;-0.348;2022-12-10T00:19:03;4.45;;;3.20;;
72493;SDS011;60520;49.182;-0.348;2022-12-10T00:21:32;4.30;;;3.00;;
72493;SDS011;60520;49.182;-0.348;2022-12-10T00:23:59;3.47;;;2.90;;
72493;SDS011;60520;49.182;-0.348;2022-12-10T00:26:27;3.92;;;3.10;;
72493;SDS011;60520;49.182;-0.348;2022-12-10T00:28:56;3.42;;;3.00;;
72493;SDS011;60520;49.182;-0.348;2022-12-10T00:31:24;3.85;;;3.05;;
72493;SDS011;60520;49.182;-0.348;2022-12-10T00:33:52;4.40;;;3.13;;
72493;SDS011;60520;49.182;-0.348;2022-12-10T00:36:22;3.25;;;2.85;;
72493;SDS011;60520;49.182;-0.348;2022-12-10T00:38:49;3.33;;;2.80;;
72493;SDS011;60520;49.182;-0.348;2022-12-10T00:41:17;3.92;;;3.00;;
72493;SDS011;60520;49.182;-0.348;2022-12-10T00:43:44;4.57;;;3.20;;
72493;SDS011;60520;49.182;-0.348;2022-12-10T00:46:13;3.33;;;2.70;;
72493;SDS011;60520;49.182;-0.348;2022-12-10T00:48:41;3.50;;;2.70;;
72493;SDS011;60520;49.182;-0.348;2022-12-10T00:51:10;3.58;;;2.90;;
72493;SDS011;60520;49.182;-0.348;2022-12-10T00:53:38;3.97;;;3.00;;
72493;SDS011;60520;49.182;-0.348;2022-12-10T00:56:06;3.55;;;2.90;;
72493;SDS011;60520;49.182;-0.348;2022-12-10T00:58:33;3.38;;;2.92;;
72493;SDS011;60520;49.182;-0.348;2022-12-10T01:01:08;4.13;;;2.90;;
72493;SDS011;60520;49.182;-0.348;2022-12-10T01:03:37;4.32;;;2.92;;
72493;SDS011;60520;49.182;-0.348;2022-12-10T01:06:08;4.05;;;3.15;;
72493;SDS011;60520;49.182;-0.348;2022-12-10T01:08:35;3.63;;;2.80;;
72493;SDS011;60520;49.182;-0.348;2022-12-10T01:11:03;3.50;;;2.78;;
72493;SDS011;60520;49.182;-0.348;2022-12-10T01:13:30;3.47;;;2.72;;
72493;SDS011;60520;49.182;-0.348;2022-12-10T01:15:59;3.75;;;2.90;;
72493;SDS011;60520;49.182;-0.348;2022-12-10T01:18:26;3.75;;;2.83;;
72493;SDS011;60520;49.182;-0.348;2022-12-10T01:20:54;3.20;;;2.63;;
72493;SDS011;60520;49.182;-0.348;2022-12-10T01:23:22;3.92;;;2.83;;
72493;SDS011;60520;49.182;-0.348;2022-12-10T01:25:49;4.00;;;3.10;;
72493;SDS011;60520;49.182;-0.348;2022-12-10T01:28:16;3.40;;;2.50;;
72493;SDS011;60520;49.182;-0.348;2022-12-10T01:30:43;3.80;;;2.83;;
72493;SDS011;60520;49.182;-0.348;2022-12-10T01:33:10;3.42;;;2.70;;
72493;SDS011;60520;49.182;-0.348;2022-12-10T01:35:37;3.40;;;2.88;;
72493;SDS011;60520;49.182;-0.348;2022-12-10T01:38:06;3.92;;;2.92;;
72493;SDS011;60520;49.182;-0.348;2022-12-10T01:40:36;2.85;;;2.38;;
72493;SDS011;60520;49.182;-0.348;2022-12-10T01:43:03;3.72;;;2.80;;
72493;SDS011;60520;49.182;-0.348;2022-12-10T01:45:30;3.47;;;2.65;;
72493;SDS011;60520;49.182;-0.348;2022-12-10T01:47:58;3.10;;;2.75;;
72493;SDS011;60520;49.182;-0.348;2022-12-10T01:50:25;2.90;;;2.42;;
72493;SDS011;60520;49.182;-0.348;2022-12-10T01:52:52;3.70;;;2.65;;
72493;SDS011;60520;49.182;-0.348;2022-12-10T01:55:41;3.90;;;2.78;;
72493;SDS011;60520;49.182;-0.348;2022-12-10T01:58:09;3.40;;;2.67;;
72493;SDS011;60520;49.182;-0.348;2022-12-10T02:00:37;3.75;;;2.63;;
72493;SDS011;60520;49.182;-0.348;2022-12-10T02:03:07;3.47;;;2.45;;
72493;SDS011;60520;49.182;-0.348;2022-12-10T02:05:36;3.72;;;2.30;;
72493;SDS011;60520;49.182;-0.348;2022-12-10T02:08:07;3.00;;;2.47;;
72493;SDS011;60520;49.182;-0.348;2022-12-10T02:10:43;3.20;;;2.30;;
72493;SDS011;60520;49.182;-0.348;2022-12-10T02:13:14;3.67;;;2.55;;
72493;SDS011;60520;49.182;-0.348;2022-12-10T02:15:44;3.28;;;2.45;;
72493;SDS011;60520;49.182;-0.348;2022-12-10T02:18:14;3.42;;;2.65;;
72493;SDS011;60520;49.182;-0.348;2022-12-10T02:20:46;3.50;;;2.50;;
72493;SDS011;60520;49.182;-0.348;2022-12-10T02:23:15;3.00;;;2.25;;
72493;SDS011;60520;49.182;-0.348;2022-12-10T02:25:47;2.78;;;2.40;;
72493;SDS011;60520;49.182;-0.348;2022-12-10T02:28:17;3.05;;;2.40;;
72493;SDS011;60520;49.182;-0.348;2022-12-10T02:30:47;2.90;;;2.38;;
72493;SDS011;60520;49.182;-0.348;2022-12-10T02:33:16;3.95;;;2.60;;
72493;SDS011;60520;49.182;-0.348;2022-12-10T02:35:44;2.80;;;2.40;;
72493;SDS011;60520;49.182;-0.348;2022-12-10T02:38:12;3.47;;;2.45;;
72493;SDS011;60520;49.182;-0.348;2022-12-10T02:40:42;3.05;;;2.25;;
72493;SDS011;60520;49.182;-0.348;2022-12-10T02:43:10;3.20;;;2.55;;
72493;SDS011;60520;49.182;-0.348;2022-12-10T02:45:38;4.03;;;2.85;;
72493;SDS011;60520;49.182;-0.348;2022-12-10T02:48:07;3.25;;;2.47;;
72493;SDS011;60520;49.182;-0.348;2022-12-10T02:50:34;3.15;;;2.42;;
72493;SDS011;60520;49.182;-0.348;2022-12-10T02:53:01;3.30;;;2.58;;
72493;SDS011;60520;49.182;-0.348;2022-12-10T02:55:28;2.80;;;2.42;;
72493;SDS011;60520;49.182;-0.348;2022-12-10T02:58:03;3.67;;;2.50;;
72493;SDS011;60520;49.182;-0.348;2022-12-10T03:00:32;2.80;;;2.30;;
72493;SDS011;60520;49.182;-0.348;2022-12-10T03:03:05;3.60;;;2.50;;
72493;SDS011;60520;49.182;-0.348;2022-12-10T03:05:35;3.38;;;2.58;;
72493;SDS011;60520;49.182;-0.348;2022-12-10T03:08:08;3.17;;;2.08;;
72493;SDS011;60520;49.182;-0.348;2022-12-10T03:10:37;2.67;;;2.40;;
72493;SDS011;60520;49.182;-0.348;2022-12-10T03:13:07;2.80;;;2.30;;
72493;SDS011;60520;49.182;-0.348;2022-12-10T03:15:36;2.78;;;2.22;;
72493;SDS011;60520;49.182;-0.348;2022-12-10T03:18:03;2.20;;;2.00;;
72493;SDS011;60520;49.182;-0.348;2022-12-10T03:20:32;2.33;;;2.08;;
72493;SDS011;60520;49.182;-0.348;2022-12-10T03:23:02;2.83;;;2.00;;
72493;SDS011;60520;49.182;-0.348;2022-12-10T03:25:30;3.42;;;2.67;;
72493;SDS011;60520;49.182;-0.348;2022-12-10T03:27:58;2.97;;;2.40;;
72493;SDS011;60520;49.182;-0.348;2022-12-10T03:30:26;3.13;;;2.33;;
72493;SDS011;60520;49.182;-0.348;2022-12-10T03:32:53;3.00;;;2.20;;
72493;SDS011;60520;49.182;-0.348;2022-12-10T03:35:21;3.20;;;2.42;;
72493;SDS011;60520;49.182;-0.348;2022-12-10T03:37:49;3.10;;;2.40;;
72493;SDS011;60520;49.182;-0.348;2022-12-10T03:40:20;2.85;;;2.20;;
72493;SDS011;60520;49.182;-0.348;2022-12-10T03:42:48;3.28;;;1.80;;
72493;SDS011;60520;49.182;-0.348;2022-12-10T03:45:15;2.60;;;2.17;;
72493;SDS011;60520;49.182;-0.348;2022-12-10T03:47:43;2.67;;;2.03;;
72493;SDS011;60520;49.182;-0.348;2022-12-10T03:50:10;2.22;;;2.03;;
72493;SDS011;60520;49.182;-0.348;2022-12-10T03:52:37;3.05;;;2.20;;
72493;SDS011;60520;49.182;-0.348;2022-12-10T03:55:04;2.83;;;2.15;;
72493;SDS011;60520;49.182;-0.348;2022-12-10T03:57:34;3.33;;;2.20;;
72493;SDS011;60520;49.182;-0.348;2022-12-10T04:00:01;2.80;;;2.20;;
72493;SDS011;60520;49.182;-0.348;2022-12-10T04:02:28;2.78;;;2.25;;
72493;SDS011;60520;49.182;-0.348;2022-12-10T04:04:55;2.78;;;2.13;;
72493;SDS011;60520;49.182;-0.348;2022-12-10T04:07:22;3.10;;;2.35;;
72493;SDS011;60520;49.182;-0.348;2022-12-10T04:09:49;3.88;;;2.58;;
72493;SDS011;60520;49.182;-0.348;2022-12-10T04:12:16;2.60;;;2.20;;
72493;SDS011;60520;49.182;-0.348;2022-12-10T04:14:45;2.85;;;2.33;;
72493;SDS011;60520;49.182;-0.348;2022-12-10T04:17:31;4.15;;;2.38;;
72493;SDS011;60520;49.182;-0.348;2022-12-10T04:19:58;2.85;;;2.55;;
72493;SDS011;60520;49.182;-0.348;2022-12-10T04:22:25;3.13;;;2.13;;
72493;SDS011;60520;49.182;-0.348;2022-12-10T04:25:10;2.97;;;2.47;;
72493;SDS011;60520;49.182;-0.348;2022-12-10T04:27:56;3.42;;;2.55;;
72493;SDS011;60520;49.182;-0.348;2022-12-10T04:30:24;3.22;;;2.22;;
72493;SDS011;60520;49.182;-0.348;2022-12-10T04:32:51;3.47;;;2.30;;
72493;SDS011;60520;49.182;-0.348;2022-12-10T04:35:18;2.67;;;2.25;;
72493;SDS011;60520;49.182;-0.348;2022-12-10T04:37:46;3.35;;;2.10;;
72493;SDS011;60520;49.182;-0.348;2022-12-10T04:40:13;3.00;;;2.20;;
72493;SDS011;60520;49.182;-0.348;2022-12-10T04:42:40;3.67;;;2.58;;
72493;SDS011;60520;49.182;-0.348;2022-12-10T04:45:07;2.45;;;2.00;;
72493;SDS011;60520;49.182;-0.348;2022-12-10T04:47:36;2.63;;;2.25;;
72493;SDS011;60520;49.182;-0.348;2022-12-10T04:50:03;3.25;;;2.58;;
72493;SDS011;60520;49.182;-0.348;2022-12-10T04:52:30;3.60;;;2.10;;
72493;SDS011;60520;49.182;-0.348;2022-12-10T04:54:57;2.78;;;2.20;;
72493;SDS011;60520;49.182;-0.348;2022-12-10T04:57:25;2.85;;;2.13;;
72493;SDS011;60520;49.182;-0.348;2022-12-10T04:59:52;2.83;;;2.20;;
72493;SDS011;60520;49.182;-0.348;2022-12-10T05:02:19;2.90;;;2.28;;
72493;SDS011;60520;49.182;-0.348;2022-12-10T05:04:49;2.88;;;2.35;;
72493;SDS011;60520;49.182;-0.348;2022-12-10T05:07:16;2.35;;;2.13;;
72493;SDS011;60520;49.182;-0.348;2022-12-10T05:09:43;3.33;;;2.30;;
72493;SDS011;60520;49.182;-0.348;2022-12-10T05:12:10;3.05;;;2.38;;
72493;SDS011;60520;49.182;-0.348;2022-12-10T05:14:38;2.88;;;2.08;;
72493;SDS011;60520;49.182;-0.348;2022-12-10T05:17:05;3.00;;;2.38;;
72493;SDS011;60520;49.182;-0.348;2022-12-10T05:19:32;3.25;;;2.40;;
72493;SDS011;60520;49.182;-0.348;2022-12-10T05:22:01;2.88;;;2.42;;
72493;SDS011;60520;49.182;-0.348;2022-12-10T05:24:46;3.00;;;2.30;;
72493;SDS011;60520;49.182;-0.348;2022-12-10T05:27:13;3.45;;;2.55;;
72493;SDS011;60520;49.182;-0.348;2022-12-10T05:29:40;3.17;;;2.30;;
72493;SDS011;60520;49.182;-0.348;2022-12-10T05:32:07;3.53;;;2.53;;
72493;SDS011;60520;49.182;-0.348;2022-12-10T05:34:34;2.78;;;2.25;;
72493;SDS011;60520;49.182;-0.348;2022-12-10T05:37:03;2.95;;;2.33;;
72493;SDS011;60520;49.182;-0.348;2022-12-10T05:39:30;3.03;;;2.20;;
72493;SDS011;60520;49.182;-0.348;2022-12-10T05:41:59;3.20;;;2.28;;
72493;SDS011;60520;49.182;-0.348;2022-12-10T05:44:26;2.67;;;2.20;;
72493;SDS011;60520;49.182;-0.348;2022-12-10T05:46:54;4.20;;;2.65;;
72493;SDS011;60520;49.182;-0.348;2022-12-10T05:49:21;3.72;;;2.55;;
72493;SDS011;60520;49.182;-0.348;2022-12-10T05:51:48;3.10;;;2.30;;
72493;SDS011;60520;49.182;-0.348;2022-12-10T05:54:17;3.13;;;2.60;;
72493;SDS011;60520;49.182;-0.348;2022-12-10T05:56:44;3.72;;;2.58;;
72493;SDS011;60520;49.182;-0.348;2022-12-10T05:59:11;3.13;;;2.10;;
72493;SDS011;60520;49.182;-0.348;2022-12-10T06:01:38;2.78;;;2.30;;
72493;SDS011;60520;49.182;-0.348;2022-12-10T06:04:05;3.38;;;2.60;;
72493;SDS011;60520;49.182;-0.348;2022-12-10T06:06:34;2.22;;;2.03;;
72493;SDS011;60520;49.182;-0.348;2022-12-10T06:09:01;3.00;;;2.30;;
72493;SDS011;60520;49.182;-0.348;2022-12-10T06:11:30;2.80;;;2.30;;
72493;SDS011;60520;49.182;-0.348;2022-12-10T06:13:57;3.50;;;2.10;;
72493;SDS011;60520;49.182;-0.348;2022-12-10T06:16:25;3.92;;;2.70;;
72493;SDS011;60520;49.182;-0.348;2022-12-10T06:18:53;2.60;;;2.35;;
72493;SDS011;60520;49.182;-0.348;2022-12-10T06:21:20;2.92;;;2.15;;
72493;SDS011;60520;49.182;-0.348;2022-12-10T06:23:48;2.72;;;2.33;;
72493;SDS011;60520;49.182;-0.348;2022-12-10T06:26:17;3.03;;;2.35;;
72493;SDS011;60520;49.182;-0.348;2022-12-10T06:28:46;3.00;;;2.50;;
72493;SDS011;60520;49.182;-0.348;2022-12-10T06:31:13;2.78;;;2.47;;
72493;SDS011;60520;49.182;-0.348;2022-12-10T06:33:40;2.25;;;2.05;;
72493;SDS011;60520;49.182;-0.348;2022-12-10T06:36:08;4.10;;;2.50;;
72493;SDS011;60520;49.182;-0.348;2022-12-10T06:38:35;2.65;;;2.20;;
72493;SDS011;60520;49.182;-0.348;2022-12-10T06:41:03;2.40;;;2.20;;
72493;SDS011;60520;49.182;-0.348;2022-12-10T06:43:31;2.97;;;2.40;;
72493;SDS011;60520;49.182;-0.348;2022-12-10T06:46:00;2.72;;;2.20;;
72493;SDS011;60520;49.182;-0.348;2022-12-10T06:48:30;2.53;;;2.03;;
72493;SDS011;60520;49.182;-0.348;2022-12-10T06:50:57;2.67;;;2.30;;
72493;SDS011;60520;49.182;-0.348;2022-12-10T06:53:24;2.70;;;2.20;;
72493;SDS011;60520;49.182;-0.348;2022-12-10T06:55:51;3.13;;;2.20;;
72493;SDS011;60520;49.182;-0.348;2022-12-10T06:58:18;2.90;;;2.25;;
72493;SDS011;60520;49.182;-0.348;2022-12-10T07:00:48;2.53;;;2.30;;
72493;SDS011;60520;49.182;-0.348;2022-12-10T07:03:17;2.53;;;2.13;;
72493;SDS011;60520;49.182;-0.348;2022-12-10T07:05:44;2.45;;;2.22;;
72493;SDS011;60520;49.182;-0.348;2022-12-10T07:08:11;2.83;;;2.20;;
72493;SDS011;60520;49.182;-0.348;2022-12-10T07:10:38;2.40;;;2.20;;
72493;SDS011;60520;49.182;-0.348;2022-12-10T07:13:05;3.03;;;2.22;;
72493;SDS011;60520;49.182;-0.348;2022-12-10T07:15:32;4.25;;;2.10;;
72493;SDS011;60520;49.182;-0.348;2022-12-10T07:17:59;2.38;;;2.00;;
72493;SDS011;60520;49.182;-0.348;2022-12-10T07:20:28;3.03;;;2.33;;
72493;SDS011;60520;49.182;-0.348;2022-12-10T07:22:56;2.63;;;2.10;;
72493;SDS011;60520;49.182;-0.348;2022-12-10T07:25:23;2.67;;;2.08;;
72493;SDS011;60520;49.182;-0.348;2022-12-10T07:27:50;2.40;;;1.90;;
72493;SDS011;60520;49.182;-0.348;2022-12-10T07:30:17;2.70;;;2.03;;
72493;SDS011;60520;49.182;-0.348;2022-12-10T07:32:44;2.60;;;2.00;;
72493;SDS011;60520;49.182;-0.348;2022-12-10T07:35:12;3.22;;;2.30;;
72493;SDS011;60520;49.182;-0.348;2022-12-10T07:37:40;2.20;;;2.00;;
72493;SDS011;60520;49.182;-0.348;2022-12-10T07:40:08;2.90;;;2.25;;
72493;SDS011;60520;49.182;-0.348;2022-12-10T07:42:35;2.40;;;2.10;;
72493;SDS011;60520;49.182;-0.348;2022-12-10T07:45:02;2.85;;;2.33;;
72493;SDS011;60520;49.182;-0.348;2022-12-10T07:47:30;3.03;;;2.20;;
72493;SDS011;60520;49.182;-0.348;2022-12-10T07:49:57;2.72;;;2.28;;
72493;SDS011;60520;49.182;-0.348;2022-12-10T07:52:24;2.30;;;1.95;;
72493;SDS011;60520;49.182;-0.348;2022-12-10T07:54:52;2.67;;;2.10;;
72493;SDS011;60520;49.182;-0.348;2022-12-10T07:57:19;2.78;;;2.00;;
72493;SDS011;60520;49.182;-0.348;2022-12-10T07:59:46;2.78;;;2.15;;
72493;SDS011;60520;49.182;-0.348;2022-12-10T08:02:14;2.60;;;1.83;;
72493;SDS011;60520;49.182;-0.348;2022-12-10T08:04:41;2.05;;;1.80;;
72493;SDS011;60520;49.182;-0.348;2022-12-10T08:07:08;2.17;;;1.88;;
72493;SDS011;60520;49.182;-0.348;2022-12-10T08:09:35;2.30;;;2.03;;
72493;SDS011;60520;49.182;-0.348;2022-12-10T08:12:04;2.20;;;1.80;;
72493;SDS011;60520;49.182;-0.348;2022-12-10T08:14:31;2.45;;;2.00;;
72493;SDS011;60520;49.182;-0.348;2022-12-10T08:16:58;2.63;;;2.00;;
72493;SDS011;60520;49.182;-0.348;2022-12-10T08:19:25;2.10;;;1.88;;
72493;SDS011;60520;49.182;-0.348;2022-12-10T08:21:52;2.53;;;2.08;;
72493;SDS011;60520;49.182;-0.348;2022-12-10T08:24:19;2.22;;;1.60;;
72493;SDS011;60520;49.182;-0.348;2022-12-10T08:26:46;2.30;;;1.90;;
72493;SDS011;60520;49.182;-0.348;2022-12-10T08:29:15;2.33;;;1.92;;
72493;SDS011;60520;49.182;-0.348;2022-12-10T08:31:42;2.30;;;1.80;;
72493;SDS011;60520;49.182;-0.348;2022-12-10T08:34:10;3.85;;;2.30;;
72493;SDS011;60520;49.182;-0.348;2022-12-10T08:36:38;2.25;;;1.88;;
72493;SDS011;60520;49.182;-0.348;2022-12-10T08:39:05;2.17;;;1.63;;
72493;SDS011;60520;49.182;-0.348;2022-12-10T08:41:32;2.00;;;1.80;;
72493;SDS011;60520;49.182;-0.348;2022-12-10T08:44:00;2.58;;;2.08;;
72493;SDS011;60520;49.182;-0.348;2022-12-10T08:46:28;2.90;;;1.90;;
72493;SDS011;60520;49.182;-0.348;2022-12-10T08:48:55;2.38;;;2.00;;
72493;SDS011;60520;49.182;-0.348;2022-12-10T08:51:22;3.95;;;2.38;;
72493;SDS011;60520;49.182;-0.348;2022-12-10T08:53:49;3.40;;;2.45;;
72493;SDS011;60520;49.182;-0.348;2022-12-10T08:56:16;2.65;;;2.30;;
72493;SDS011;60520;49.182;-0.348;2022-12-10T08:58:44;2.38;;;2.00;;
72493;SDS011;60520;49.182;-0.348;2022-12-10T09:01:12;2.50;;;2.15;;
72493;SDS011;60520;49.182;-0.348;2022-12-10T09:03:41;2.90;;;2.38;;
72493;SDS011;60520;49.182;-0.348;2022-12-10T09:06:10;3.15;;;2.20;;
72493;SDS011;60520;49.182;-0.348;2022-12-10T09:08:37;3.40;;;2.65;;
72493;SDS011;60520;49.182;-0.348;2022-12-10T09:11:05;2.50;;;2.30;;
72493;SDS011;60520;49.182;-0.348;2022-12-10T09:13:33;3.30;;;2.50;;
72493;SDS011;60520;49.182;-0.348;2022-12-10T09:16:00;3.20;;;2.35;;
72493;SDS011;60520;49.182;-0.348;2022-12-10T09:18:27;2.95;;;2.25;;
72493;SDS011;60520;49.182;-0.348;2022-12-10T09:20:55;3.13;;;2.33;;
72493;SDS011;60520;49.182;-0.348;2022-12-10T09:23:23;2.75;;;2.28;;
72493;SDS011;60520;49.182;-0.348;2022-12-10T09:25:50;2.65;;;2.10;;
72493;SDS011;60520;49.182;-0.348;2022-12-10T09:28:17;2.75;;;2.33;;
72493;SDS011;60520;49.182;-0.348;2022-12-10T09:30:44;2.70;;;2.13;;
72493;SDS011;60520;49.182;-0.348;2022-12-10T09:33:11;3.00;;;2.30;;
72493;SDS011;60520;49.182;-0.348;2022-12-10T09:35:39;3.55;;;2.42;;
72493;SDS011;60520;49.182;-0.348;2022-12-10T09:38:08;4.50;;;2.35;;
72493;SDS011;60520;49.182;-0.348;2022-12-10T09:40:37;2.53;;;2.17;;
72493;SDS011;60520;49.182;-0.348;2022-12-10T09:43:09;3.10;;;2.15;;
72493;SDS011;60520;49.182;-0.348;2022-12-10T09:45:40;7.90;;;2.38;;
72493;SDS011;60520;49.182;-0.348;2022-12-10T09:48:11;3.00;;;2.20;;
72493;SDS011;60520;49.182;-0.348;2022-12-10T09:50:41;3.03;;;2.13;;
72493;SDS011;60520;49.182;-0.348;2022-12-10T09:53:14;2.92;;;2.28;;
72493;SDS011;60520;49.182;-0.348;2022-12-10T09:55:45;4.38;;;2.38;;
72493;SDS011;60520;49.182;-0.348;2022-12-10T09:58:13;3.00;;;2.30;;
72493;SDS011;60520;49.182;-0.348;2022-12-10T10:00:41;2.58;;;2.28;;
72493;SDS011;60520;49.182;-0.348;2022-12-10T10:03:10;2.83;;;2.13;;
72493;SDS011;60520;49.182;-0.348;2022-12-10T10:05:39;3.10;;;2.35;;
72493;SDS011;60520;49.182;-0.348;2022-12-10T10:08:12;3.75;;;2.60;;
72493;SDS011;60520;49.182;-0.348;2022-12-10T10:10:41;3.72;;;2.42;;
72493;SDS011;60520;49.182;-0.348;2022-12-10T10:13:12;2.92;;;2.30;;
72493;SDS011;60520;49.182;-0.348;2022-12-10T10:15:43;3.22;;;2.35;;
72493;SDS011;60520;49.182;-0.348;2022-12-10T10:18:13;3.47;;;2.40;;
72493;SDS011;60520;49.182;-0.348;2022-12-10T10:20:41;3.05;;;2.40;;
72493;SDS011;60520;49.182;-0.348;2022-12-10T10:23:08;4.18;;;2.30;;
72493;SDS011;60520;49.182;-0.348;2022-12-10T10:25:40;3.33;;;2.28;;
72493;SDS011;60520;49.182;-0.348;2022-12-10T10:28:09;3.38;;;2.40;;
72493;SDS011;60520;49.182;-0.348;2022-12-10T10:30:37;13.43;;;2.30;;
72493;SDS011;60520;49.182;-0.348;2022-12-10T10:33:08;5.13;;;2.50;;
72493;SDS011;60520;49.182;-0.348;2022-12-10T10:35:41;3.63;;;2.58;;
72493;SDS011;60520;49.182;-0.348;2022-12-10T10:38:13;4.75;;;2.55;;
72493;SDS011;60520;49.182;-0.348;2022-12-10T10:40:43;2.60;;;2.20;;
72493;SDS011;60520;49.182;-0.348;2022-12-10T10:43:12;3.13;;;2.30;;
72493;SDS011;60520;49.182;-0.348;2022-12-10T10:45:41;3.05;;;2.47;;
72493;SDS011;60520;49.182;-0.348;2022-12-10T10:48:11;7.85;;;2.80;;
72493;SDS011;60520;49.182;-0.348;2022-12-10T10:50:39;7.55;;;2.70;;
72493;SDS011;60520;49.182;-0.348;2022-12-10T10:53:23;5.30;;;2.40;;
72493;SDS011;60520;49.182;-0.348;2022-12-10T10:55:52;3.78;;;2.45;;
72493;SDS011;60520;49.182;-0.348;2022-12-10T10:58:20;5.70;;;2.55;;
72493;SDS011;60520;49.182;-0.348;2022-12-10T11:00:55;3.03;;;2.30;;
72493;SDS011;60520;49.182;-0.348;2022-12-10T11:03:22;4.15;;;2.80;;
72493;SDS011;60520;49.182;-0.348;2022-12-10T11:05:49;3.90;;;2.70;;
72493;SDS011;60520;49.182;-0.348;2022-12-10T11:08:17;3.60;;;2.47;;
72493;SDS011;60520;49.182;-0.348;2022-12-10T11:10:49;3.10;;;2.55;;
72493;SDS011;60520;49.182;-0.348;2022-12-10T11:13:22;5.35;;;2.60;;
72493;SDS011;60520;49.182;-0.348;2022-12-10T11:15:54;3.47;;;2.47;;
72493;SDS011;60520;49.182;-0.348;2022-12-10T11:18:23;3.75;;;2.47;;
72493;SDS011;60520;49.182;-0.348;2022-12-10T11:20:58;5.30;;;2.70;;
72493;SDS011;60520;49.182;-0.348;2022-12-10T11:23:26;3.38;;;2.40;;
72493;SDS011;60520;49.182;-0.348;2022-12-10T11:25:55;4.25;;;2.78;;
72493;SDS011;60520;49.182;-0.348;2022-12-10T11:28:31;3.28;;;2.30;;
72493;SDS011;60520;49.182;-0.348;2022-12-10T11:31:05;4.43;;;2.70;;
72493;SDS011;60520;49.182;-0.348;2022-12-10T11:33:40;4.82;;;2.70;;
72493;SDS011;60520;49.182;-0.348;2022-12-10T11:36:15;5.13;;;2.72;;
72493;SDS011;60520;49.182;-0.348;2022-12-10T11:38:50;6.35;;;2.80;;
72493;SDS011;60520;49.182;-0.348;2022-12-10T11:41:22;4.20;;;2.90;;
72493;SDS011;60520;49.182;-0.348;2022-12-10T11:44:04;4.93;;;3.00;;
72493;SDS011;60520;49.182;-0.348;2022-12-10T11:46:39;4.45;;;3.17;;
72493;SDS011;60520;49.182;-0.348;2022-12-10T11:49:12;4.20;;;2.80;;
72493;SDS011;60520;49.182;-0.348;2022-12-10T11:51:43;3.75;;;2.92;;
72493;SDS011;60520;49.182;-0.348;2022-12-10T11:54:17;5.90;;;3.13;;
72493;SDS011;60520;49.182;-0.348;2022-12-10T11:56:48;4.78;;;3.03;;
72493;SDS011;60520;49.182;-0.348;2022-12-10T11:59:19;4.97;;;3.38;;
72493;SDS011;60520;49.182;-0.348;2022-12-10T12:01:52;3.92;;;3.10;;
72493;SDS011;60520;49.182;-0.348;2022-12-10T12:04:28;5.18;;;3.13;;
72493;SDS011;60520;49.182;-0.348;2022-12-10T12:07:03;4.97;;;3.15;;
72493;SDS011;60520;49.182;-0.348;2022-12-10T12:09:34;7.80;;;3.28;;
72493;SDS011;60520;49.182;-0.348;2022-12-10T12:12:10;4.35;;;3.03;;
72493;SDS011;60520;49.182;-0.348;2022-12-10T12:14:41;4.25;;;3.17;;
72493;SDS011;60520;49.182;-0.348;2022-12-10T12:17:12;4.05;;;3.05;;
72493;SDS011;60520;49.182;-0.348;2022-12-10T12:19:44;4.28;;;2.88;;
72493;SDS011;60520;49.182;-0.348;2022-12-10T12:22:13;3.80;;;2.95;;
72493;SDS011;60520;49.182;-0.348;2022-12-10T12:24:41;5.00;;;3.60;;
72493;SDS011;60520;49.182;-0.348;2022-12-10T12:27:12;3.55;;;2.85;;
72493;SDS011;60520;49.182;-0.348;2022-12-10T12:29:43;5.35;;;3.20;;
72493;SDS011;60520;49.182;-0.348;2022-12-10T12:32:23;5.68;;;3.17;;
72493;SDS011;60520;49.182;-0.348;2022-12-10T12:34:51;7.72;;;3.00;;
72493;SDS011;60520;49.182;-0.348;2022-12-10T12:37:20;4.60;;;3.03;;
72493;SDS011;60520;49.182;-0.348;2022-12-10T12:39:49;6.53;;;3.20;;
72493;SDS011;60520;49.182;-0.348;2022-12-10T12:42:21;3.92;;;2.75;;
72493;SDS011;60520;49.182;-0.348;2022-12-10T12:44:53;4.40;;;2.72;;
72493;SDS011;60520;49.182;-0.348;2022-12-10T12:47:26;4.97;;;2.92;;
72493;SDS011;60520;49.182;-0.348;2022-12-10T12:49:56;4.32;;;2.90;;
72493;SDS011;60520;49.182;-0.348;2022-12-10T12:52:26;4.60;;;3.28;;
72493;SDS011;60520;49.182;-0.348;2022-12-10T12:54:58;6.60;;;2.90;;
72493;SDS011;60520;49.182;-0.348;2022-12-10T12:57:27;3.28;;;2.70;;
72493;SDS011;60520;49.182;-0.348;2022-12-10T13:00:00;5.28;;;3.33;;
72493;SDS011;60520;49.182;-0.348;2022-12-10T13:02:42;6.22;;;3.25;;
72493;SDS011;60520;49.182;-0.348;2022-12-10T13:05:12;4.47;;;3.20;;
72493;SDS011;60520;49.182;-0.348;2022-12-10T13:07:39;4.47;;;3.00;;
72493;SDS011;60520;49.182;-0.348;2022-12-10T13:10:08;4.93;;;2.85;;
72493;SDS011;60520;49.182;-0.348;2022-12-10T13:12:44;5.40;;;3.40;;
72493;SDS011;60520;49.182;-0.348;2022-12-10T13:15:18;6.28;;;3.05;;
72493;SDS011;60520;49.182;-0.348;2022-12-10T13:18:03;5.53;;;3.55;;
72493;SDS011;60520;49.182;-0.348;2022-12-10T13:20:34;10.60;;;4.13;;
72493;SDS011;60520;49.182;-0.348;2022-12-10T13:25:55;31.80;;;5.15;;
72493;SDS011;60520;49.182;-0.348;2022-12-10T13:28:27;26.95;;;4.60;;
72493;SDS011;60520;49.182;-0.348;2022-12-10T13:33:49;31.73;;;5.50;;
72493;SDS011;60520;49.182;-0.348;2022-12-10T13:36:20;33.50;;;4.70;;
72493;SDS011;60520;49.182;-0.348;2022-12-10T13:41:39;12.43;;;4.22;;
72493;SDS011;60520;49.182;-0.348;2022-12-10T13:44:30;11.13;;;4.43;;
72493;SDS011;60520;49.182;-0.348;2022-12-10T13:46:59;16.23;;;4.22;;
72493;SDS011;60520;49.182;-0.348;2022-12-10T13:49:29;22.48;;;4.70;;
72493;SDS011;60520;49.182;-0.348;2022-12-10T13:51:58;5.90;;;3.40;;
72493;SDS011;60520;49.182;-0.348;2022-12-10T13:54:31;10.57;;;3.88;;
72493;SDS011;60520;49.182;-0.348;2022-12-10T13:57:08;12.63;;;3.80;;
72493;SDS011;60520;49.182;-0.348;2022-12-10T13:59:40;15.20;;;4.05;;
72493;SDS011;60520;49.182;-0.348;2022-12-10T14:02:17;11.75;;;4.20;;
72493;SDS011;60520;49.182;-0.348;2022-12-10T14:05:00;13.80;;;4.45;;
72493;SDS011;60520;49.182;-0.348;2022-12-10T14:07:30;20.85;;;4.80;;
72493;SDS011;60520;49.182;-0.348;2022-12-10T14:09:58;12.95;;;4.75;;
72493;SDS011;60520;49.182;-0.348;2022-12-10T14:12:26;13.30;;;4.53;;
72493;SDS011;60520;49.182;-0.348;2022-12-10T14:14:56;19.40;;;4.57;;
72493;SDS011;60520;49.182;-0.348;2022-12-10T14:17:25;11.70;;;5.30;;
72493;SDS011;60520;49.182;-0.348;2022-12-10T14:19:56;14.70;;;7.95;;
72493;SDS011;60520;49.182;-0.348;2022-12-10T14:22:28;15.95;;;7.43;;
72493;SDS011;60520;49.182;-0.348;2022-12-10T14:24:58;51.92;;;7.18;;
72493;SDS011;60520;49.182;-0.348;2022-12-10T14:27:26;14.45;;;5.55;;
72493;SDS011;60520;49.182;-0.348;2022-12-10T14:29:58;27.90;;;6.30;;
72493;SDS011;60520;49.182;-0.348;2022-12-10T14:32:27;12.23;;;5.50;;
72493;SDS011;60520;49.182;-0.348;2022-12-10T14:34:56;12.90;;;5.47;;
72493;SDS011;60520;49.182;-0.348;2022-12-10T14:37:26;16.35;;;5.20;;
72493;SDS011;60520;49.182;-0.348;2022-12-10T14:39:54;14.80;;;5.22;;
72493;SDS011;60520;49.182;-0.348;2022-12-10T14:42:21;15.45;;;5.28;;
72493;SDS011;60520;49.182;-0.348;2022-12-10T14:44:49;11.77;;;5.20;;
72493;SDS011;60520;49.182;-0.348;2022-12-10T14:47:19;13.60;;;5.05;;
72493;SDS011;60520;49.182;-0.348;2022-12-10T14:49:46;11.65;;;5.25;;
72493;SDS011;60520;49.182;-0.348;2022-12-10T14:52:14;8.68;;;5.00;;
72493;SDS011;60520;49.182;-0.348;2022-12-10T14:54:44;11.45;;;4.63;;